createdAt,value
2022-10-23T00:03:24.558Z,1.80
2022-10-23T00:08:26.727Z,2.13
2022-10-23T00:13:28.887Z,2.22
2022-10-23T00:18:31.336Z,2.75
2022-10-23T00:23:33.563Z,2.28
2022-10-23T00:28:35.814Z,2.40
2022-10-23T00:33:38.164Z,2.08
2022-10-23T00:38:40.771Z,2.38
2022-10-23T00:44:03.100Z,2.65
2022-10-23T00:49:06.971Z,2.80
2022-10-23T00:54:26.631Z,2.67
2022-10-23T00:59:30.165Z,1.90
2022-10-23T01:04:33.331Z,3.80
2022-10-23T01:09:45.460Z,1.55
2022-10-23T01:15:03.751Z,2.00
2022-10-23T01:20:17.980Z,1.52
2022-10-23T01:25:51.951Z,3.25
2022-10-23T01:30:56.024Z,1.70
2022-10-23T01:36:11.562Z,1.10
2022-10-23T01:41:20.889Z,0.95
2022-10-23T01:46:25.679Z,0.98
2022-10-23T01:51:30.780Z,1.05
2022-10-23T01:56:41.394Z,1.02
2022-10-23T02:01:47.991Z,1.20
2022-10-23T02:06:50.342Z,1.42
2022-10-23T02:12:02.486Z,1.30
2022-10-23T02:17:17.915Z,1.65
2022-10-23T02:22:25.806Z,1.20
2022-10-23T02:27:39.107Z,0.95
2022-10-23T02:32:50.129Z,0.70
2022-10-23T02:37:58.090Z,0.75
2022-10-23T02:43:10.478Z,0.80
2022-10-23T02:48:24.688Z,0.80
2022-10-23T02:53:41.600Z,0.80
2022-10-23T02:59:06.939Z,0.98
2022-10-23T03:04:11.461Z,0.60
2022-10-23T03:09:13.594Z,0.50
2022-10-23T03:14:15.674Z,0.60
2022-10-23T03:19:17.831Z,0.52
2022-10-23T03:24:19.991Z,0.45
2022-10-23T03:29:22.282Z,0.52
2022-10-23T03:34:25.476Z,0.55
2022-10-23T03:39:28.807Z,1.02
2022-10-23T03:44:32.412Z,0.55
2022-10-23T03:49:34.598Z,0.70
2022-10-23T03:54:40.926Z,0.52
2022-10-23T03:59:43.035Z,0.52
2022-10-23T04:04:45.299Z,0.60
2022-10-23T04:09:48.738Z,0.70
2022-10-23T04:14:52.146Z,1.15
2022-10-23T04:19:54.382Z,0.60
2022-10-23T04:24:56.698Z,0.60
2022-10-23T04:29:59.225Z,0.63
2022-10-23T04:35:02.175Z,0.50
2022-10-23T04:40:06.715Z,0.60
2022-10-23T04:45:11.545Z,0.60
2022-10-23T04:50:17.274Z,0.77
2022-10-23T04:55:37.772Z,0.50
2022-10-23T05:00:54.814Z,0.70
2022-10-23T05:06:00.605Z,0.63
2022-10-23T05:11:23.309Z,0.60
2022-10-23T05:16:34.467Z,0.90
2022-10-23T05:21:38.318Z,0.55
2022-10-23T05:26:41.775Z,0.50
2022-10-23T05:31:44.380Z,0.70
2022-10-23T05:36:48.120Z,0.77
2022-10-23T05:41:51.313Z,0.77
2022-10-23T05:46:58.000Z,0.60
2022-10-23T05:52:20.283Z,0.85
2022-10-23T05:57:48.621Z,0.80
2022-10-23T06:02:56.345Z,0.93
2022-10-23T06:08:10.313Z,0.82
2022-10-23T06:13:12.453Z,0.73
2022-10-23T06:18:14.642Z,0.75
2022-10-23T06:23:29.973Z,0.85
2022-10-23T06:28:50.501Z,0.98
2022-10-23T06:33:54.563Z,0.80
2022-10-23T06:38:56.873Z,0.90
2022-10-23T06:44:16.386Z,0.90
2022-10-23T06:49:24.826Z,0.65
2022-10-23T06:54:28.674Z,0.80
2022-10-23T06:59:33.565Z,1.08
2022-10-23T07:04:36.222Z,0.70
2022-10-23T07:09:45.033Z,0.70
2022-10-23T07:15:06.478Z,0.60
2022-10-23T07:20:09.347Z,0.70
2022-10-23T07:25:11.672Z,1.00
2022-10-23T07:30:15.532Z,0.88
2022-10-23T07:35:23.691Z,0.65
2022-10-23T07:40:40.938Z,1.40
2022-10-23T07:45:47.897Z,1.70
2022-10-23T07:51:01.714Z,1.83
2022-10-23T07:56:15.872Z,3.30
2022-10-23T08:01:56.742Z,2.33
2022-10-23T08:07:10.588Z,2.40
2022-10-23T08:12:17.336Z,1.83
2022-10-23T08:17:19.767Z,2.60
2022-10-23T08:22:41.623Z,1.20
2022-10-23T08:27:45.029Z,1.63
2022-10-23T08:32:49.243Z,2.85
2022-10-23T08:37:51.739Z,1.17
2022-10-23T08:43:01.645Z,1.38
2022-10-23T08:48:41.850Z,1.15
2022-10-23T08:54:20.572Z,1.15
2022-10-23T08:59:38.056Z,0.77
2022-10-23T09:04:41.373Z,1.00
2022-10-23T09:09:46.685Z,0.77
2022-10-23T09:15:04.159Z,1.40
2022-10-23T09:20:24.461Z,1.00
2022-10-23T09:25:32.180Z,1.42
2022-10-23T09:30:40.046Z,1.05
2022-10-23T09:35:55.955Z,1.15
2022-10-23T09:41:01.922Z,1.10
2022-10-23T09:51:21.804Z,0.93
2022-10-23T10:02:04.654Z,1.10
2022-10-23T10:07:30.175Z,1.05
2022-10-23T10:12:34.377Z,1.58
2022-10-23T10:17:55.822Z,1.20
2022-10-23T10:23:31.348Z,1.30
2022-10-23T10:28:48.553Z,1.10
2022-10-23T10:34:27.767Z,1.27
2022-10-23T10:39:46.200Z,0.93
2022-10-23T10:45:07.050Z,0.95
2022-10-23T10:50:19.973Z,0.93
2022-10-23T10:55:46.884Z,1.10
2022-10-23T11:01:00.472Z,1.15
2022-10-23T11:06:04.781Z,1.08
2022-10-23T11:11:09.469Z,1.30
2022-10-23T11:16:23.823Z,3.40
2022-10-23T11:21:47.360Z,1.60
2022-10-23T11:27:23.089Z,1.70
2022-10-23T11:33:02.184Z,1.40
2022-10-23T11:38:16.236Z,3.15
2022-10-23T11:43:29.624Z,2.70
2022-10-23T11:48:40.644Z,2.53
2022-10-23T11:53:42.753Z,1.80
2022-10-23T11:58:49.293Z,1.60
2022-10-23T12:03:56.640Z,1.40
2022-10-23T12:09:06.304Z,1.30
2022-10-23T12:14:31.086Z,1.20
2022-10-23T12:19:48.886Z,0.85
2022-10-23T12:24:56.749Z,1.27
2022-10-23T12:30:25.040Z,1.40
2022-10-23T12:35:58.013Z,1.00
2022-10-23T12:41:16.688Z,1.45
2022-10-23T12:46:27.179Z,1.60
2022-10-23T12:51:32.149Z,1.23
2022-10-23T12:56:36.775Z,1.37
2022-10-23T13:01:40.533Z,1.10
2022-10-23T13:06:45.877Z,1.30
2022-10-23T13:11:48.393Z,1.33
2022-10-23T13:17:03.154Z,1.35
2022-10-23T13:22:20.157Z,1.52
2022-10-23T13:27:32.962Z,1.80
2022-10-23T13:32:35.215Z,1.75
2022-10-23T13:37:37.555Z,1.70
2022-10-23T13:42:39.733Z,1.50
2022-10-23T13:47:42.057Z,1.73
2022-10-23T13:52:45.054Z,2.13
2022-10-23T13:57:47.209Z,2.17
2022-10-23T14:02:51.004Z,1.40
2022-10-23T14:07:53.147Z,2.22
2022-10-23T14:12:55.339Z,2.80
2022-10-23T14:17:59.491Z,2.40
2022-10-23T14:23:02.964Z,2.50
2022-10-23T14:28:05.313Z,2.40
2022-10-23T14:33:07.471Z,2.92
2022-10-23T14:38:09.764Z,3.00
2022-10-23T14:43:11.853Z,2.50
2022-10-23T14:48:13.974Z,2.92
2022-10-23T14:53:16.409Z,2.13
2022-10-23T14:58:18.557Z,2.35
2022-10-23T15:03:21.121Z,2.30
2022-10-23T15:08:23.665Z,2.88
2022-10-23T15:13:25.963Z,1.98
2022-10-23T15:18:28.207Z,2.20
2022-10-23T15:23:30.494Z,1.98
2022-10-23T15:28:33.925Z,2.15
2022-10-23T15:33:38.952Z,1.70
2022-10-23T15:38:41.087Z,2.33
2022-10-23T15:43:43.272Z,2.47
2022-10-23T15:48:45.589Z,2.25
2022-10-23T15:53:47.800Z,1.80
2022-10-23T15:58:50.265Z,2.38
2022-10-23T16:03:52.822Z,2.53
2022-10-23T16:08:55.007Z,1.95
2022-10-23T16:13:58.820Z,2.10
2022-10-23T16:19:02.659Z,1.77
2022-10-23T16:24:06.906Z,1.15
2022-10-23T16:29:10.081Z,2.08
2022-10-23T16:34:12.319Z,1.63
2022-10-23T16:39:16.643Z,1.50
2022-10-23T16:44:38.613Z,2.42
2022-10-23T16:49:41.693Z,2.88
2022-10-23T16:54:44.277Z,1.92
2022-10-23T16:59:46.399Z,2.70
2022-10-23T17:04:48.550Z,3.40
2022-10-23T17:09:51.267Z,3.22
2022-10-23T17:14:53.415Z,4.15
2022-10-23T17:19:55.561Z,3.45
2022-10-23T17:24:58.829Z,5.80
2022-10-23T17:30:00.958Z,3.35
2022-10-23T17:35:05.633Z,3.03
2022-10-23T17:40:08.135Z,3.22
2022-10-23T17:45:10.619Z,3.10
2022-10-23T17:50:13.953Z,3.15
2022-10-23T17:55:16.211Z,3.20
2022-10-23T18:00:18.415Z,3.33
2022-10-23T18:05:20.786Z,3.35
2022-10-23T18:10:23.097Z,2.50
2022-10-23T18:15:25.159Z,2.97
2022-10-23T18:20:27.288Z,3.63
2022-10-23T18:25:29.406Z,2.83
2022-10-23T18:30:31.849Z,2.78
2022-10-23T18:35:35.486Z,2.90
2022-10-23T18:40:38.782Z,9.48
2022-10-23T18:45:42.747Z,5.10
2022-10-23T18:50:44.902Z,7.32
2022-10-23T18:55:49.410Z,3.70
2022-10-23T19:00:51.804Z,3.95
2022-10-23T19:05:53.993Z,4.25
2022-10-23T19:11:00.151Z,4.07
2022-10-23T19:16:04.706Z,4.22
2022-10-23T19:21:07.779Z,4.05
2022-10-23T19:26:13.334Z,3.88
2022-10-23T19:31:15.697Z,3.33
2022-10-23T19:36:22.355Z,3.13
2022-10-23T19:41:25.461Z,2.78
2022-10-23T19:46:27.626Z,2.67
2022-10-23T19:51:29.890Z,3.08
2022-10-23T19:56:32.201Z,3.00
2022-10-23T20:01:35.620Z,3.60
2022-10-23T20:06:38.073Z,2.67
2022-10-23T20:11:41.078Z,3.50
2022-10-23T20:16:45.040Z,2.28
2022-10-23T20:21:49.361Z,3.80
2022-10-23T20:26:54.213Z,3.20
2022-10-23T20:31:56.327Z,3.10
2022-10-23T20:36:58.563Z,2.92
2022-10-23T20:42:00.978Z,2.35
2022-10-23T20:47:03.096Z,2.58
2022-10-23T20:52:05.146Z,2.45
2022-10-23T20:57:07.246Z,2.47
2022-10-23T21:02:10.097Z,2.15
2022-10-23T21:07:12.263Z,2.88
2022-10-23T21:12:14.394Z,3.28
2022-10-23T21:17:17.945Z,2.80
2022-10-23T21:22:20.077Z,2.60
2022-10-23T21:27:22.243Z,2.80
2022-10-23T21:32:24.359Z,2.47
2022-10-23T21:37:26.450Z,3.03
2022-10-23T21:47:33.649Z,2.47
2022-10-23T21:52:35.748Z,2.25
2022-10-23T21:57:37.876Z,2.05
2022-10-23T22:02:40.084Z,2.10
2022-10-23T22:07:46.633Z,2.42
2022-10-23T22:12:49.098Z,2.00
2022-10-23T22:17:51.170Z,2.10
2022-10-23T22:22:53.276Z,2.40
2022-10-23T22:27:55.338Z,2.33
2022-10-23T22:32:57.426Z,1.55
2022-10-23T22:37:59.581Z,1.90
2022-10-23T22:43:01.687Z,1.80
2022-10-23T22:48:03.892Z,1.55
2022-10-23T22:53:05.934Z,2.00
2022-10-23T22:58:08.006Z,1.40
2022-10-23T23:03:10.158Z,2.10
2022-10-23T23:08:12.944Z,1.85
2022-10-23T23:13:15.218Z,2.13
2022-10-23T23:18:17.338Z,2.05
2022-10-23T23:23:19.913Z,1.40
2022-10-23T23:28:22.348Z,2.13
2022-10-23T23:33:24.416Z,1.48
2022-10-23T23:38:26.571Z,1.50
2022-10-23T23:43:29.561Z,1.92
2022-10-23T23:48:31.921Z,1.83
2022-10-23T23:53:34.055Z,1.80
2022-10-23T23:58:36.240Z,1.45
